Time;durP1;ratioP1;P1;durP2;ratioP2;P2;SDS_P1;SDS_P2;PMS_P1;PMS_P2;Temp;Humidity;BMP_temperature;BMP_pressure;BME280_temperature;BME280_humidity;BME280_pressure;Samples;Min_cycle;Max_cycle;Signal;HPM_P1;HPM_P2
2022/01/08 00:00:28;;;;;;;5.38;3.45;;;4.20;99.90;;;;;;5051013;28;20111;-69
2022/01/08 00:02:54;;;;;;;5.03;3.40;;;4.20;99.90;;;;;;5050907;28;20174;-70
2022/01/08 00:05:20;;;;;;;4.97;3.53;;;4.20;99.90;;;;;;5049455;28;20125;-71
2022/01/08 00:07:46;;;;;;;6.60;4.15;;;4.30;99.90;;;;;;5050730;28;20030;-71
2022/01/08 00:10:12;;;;;;;3.55;3.13;;;4.30;99.90;;;;;;5051560;28;20372;-69
2022/01/08 00:12:38;;;;;;;5.18;3.58;;;4.30;99.90;;;;;;5050452;28;20024;-69
2022/01/08 00:15:06;;;;;;;6.47;3.90;;;4.30;99.90;;;;;;5051435;28;20025;-70
2022/01/08 00:17:32;;;;;;;;;;;4.40;99.90;;;;;;5066465;28;20525;-71
2022/01/08 00:19:58;;;;;;;5.03;3.38;;;4.50;99.90;;;;;;5068697;28;19917;-69
2022/01/08 00:22:23;;;;;;;9.23;3.92;;;4.50;99.90;;;;;;5065922;28;20033;-69
2022/01/08 00:24:52;;;;;;;7.60;4.43;;;4.50;99.90;;;;;;5050267;28;20514;-70
2022/01/08 00:27:22;;;;;;;8.18;4.80;;;4.50;99.90;;;;;;5066544;28;20045;-71
2022/01/08 00:29:48;;;;;;;7.80;5.00;;;4.60;99.90;;;;;;5063473;28;20037;-71
2022/01/08 00:32:14;;;;;;;8.00;4.68;;;4.60;99.90;;;;;;5070634;28;20024;-71
2022/01/08 00:34:41;;;;;;;9.50;5.43;;;4.70;99.90;;;;;;5070395;28;20347;-71
2022/01/08 00:37:07;;;;;;;9.77;5.65;;;4.70;99.90;;;;;;5063696;28;20378;-71
2022/01/08 00:39:33;;;;;;;8.82;5.55;;;4.80;99.90;;;;;;5050182;28;20037;-71
2022/01/08 00:41:59;;;;;;;7.95;5.43;;;4.80;99.90;;;;;;5055967;28;20527;-71
2022/01/08 00:44:25;;;;;;;9.20;5.30;;;4.90;99.90;;;;;;5070299;28;20045;-71
2022/01/08 00:46:51;;;;;;;10.13;5.80;;;5.00;99.90;;;;;;5070330;28;20028;-72
2022/01/08 00:49:16;;;;;;;9.80;6.00;;;4.90;99.90;;;;;;5069040;28;20032;-71
2022/01/08 00:51:42;;;;;;;8.77;5.93;;;4.90;99.90;;;;;;5070158;28;20025;-71
2022/01/08 00:54:08;;;;;;;9.68;6.25;;;4.90;99.90;;;;;;5073242;28;20040;-71
2022/01/08 00:56:33;;;;;;;10.45;6.65;;;4.80;99.90;;;;;;5074129;28;20021;-69
2022/01/08 00:58:59;;;;;;;11.80;6.82;;;4.80;99.90;;;;;;5073552;28;20029;-72
2022/01/08 01:01:25;;;;;;;14.70;7.45;;;5.00;99.90;;;;;;5072902;28;20394;-71
2022/01/08 01:03:50;;;;;;;14.57;7.22;;;4.90;99.90;;;;;;5073654;28;20040;-71
2022/01/08 01:06:16;;;;;;;14.70;7.68;;;4.90;99.90;;;;;;5073247;28;20024;-71
2022/01/08 01:08:42;;;;;;;15.30;7.88;;;5.00;99.90;;;;;;5072841;28;20729;-71
2022/01/08 01:11:07;;;;;;;15.05;8.70;;;5.10;99.90;;;;;;5073926;28;20400;-70
2022/01/08 01:13:33;;;;;;;16.27;8.52;;;5.20;99.90;;;;;;5072020;28;20033;-71
2022/01/08 01:15:58;;;;;;;20.98;8.55;;;5.10;99.80;;;;;;5072125;28;20573;-70
2022/01/08 01:18:24;;;;;;;15.40;8.90;;;5.10;99.80;;;;;;5073851;28;20039;-70
2022/01/08 01:20:50;;;;;;;13.98;9.02;;;5.10;99.70;;;;;;5072864;28;20023;-70
2022/01/08 01:23:21;;;;;;;16.15;9.30;;;5.10;99.70;;;;;;5073521;28;20094;-71
2022/01/08 01:25:49;;;;;;;15.00;9.30;;;5.20;99.80;;;;;;5072522;28;20363;-71
2022/01/08 01:47:16;;;;;;;20.48;11.35;;;5.10;99.80;;;;;;5073222;28;20166;-71
2022/01/08 01:49:44;;;;;;;22.90;11.20;;;5.00;99.70;;;;;;5073035;28;20029;-71
2022/01/08 01:52:16;;;;;;;18.55;10.88;;;4.90;99.70;;;;;;5073127;28;20285;-71
2022/01/08 01:54:43;;;;;;;24.98;11.80;;;4.90;99.80;;;;;;5072403;28;20371;-72
2022/01/08 01:57:10;;;;;;;23.52;13.02;;;4.90;99.80;;;;;;5073519;28;20085;-71
2022/01/08 01:59:36;;;;;;;23.90;12.98;;;5.00;99.80;;;;;;5071898;28;20413;-71
2022/01/08 02:02:03;;;;;;;26.50;13.73;;;5.00;99.80;;;;;;5072663;28;20052;-71
2022/01/08 02:04:29;;;;;;;23.65;13.13;;;4.90;99.80;;;;;;5070979;28;20396;-71
2022/01/08 02:06:54;;;;;;;30.58;13.82;;;4.90;99.90;;;;;;5072424;28;20052;-70
2022/01/08 02:09:20;;;;;;;25.67;14.38;;;4.90;99.90;;;;;;5073179;28;20363;-71
2022/01/08 02:12:17;;;;;;;27.10;13.60;;;5.00;99.90;;;;;;5072965;28;20031;-71
2022/01/08 02:14:45;;;;;;;29.17;14.07;;;5.00;99.90;;;;;;5072749;28;20032;-71
2022/01/08 02:17:10;;;;;;;;;;;5.00;99.90;;;;;;5071339;28;20417;-70
2022/01/08 02:19:37;;;;;;;23.77;12.70;;;5.00;99.90;;;;;;5072676;28;20054;-70
2022/01/08 02:22:05;;;;;;;26.83;13.60;;;5.00;99.90;;;;;;5072510;28;20043;-70
2022/01/08 02:24:31;;;;;;;28.70;13.48;;;5.00;99.70;;;;;;5071575;28;20035;-70
2022/01/08 02:26:57;;;;;;;23.08;12.93;;;5.00;99.90;;;;;;5072288;28;20067;-71
2022/01/08 02:29:24;;;;;;;24.55;13.05;;;5.00;99.90;;;;;;5072596;28;20032;-70
2022/01/08 02:31:56;;;;;;;22.38;12.68;;;5.00;99.90;;;;;;5071980;28;20028;-70
2022/01/08 02:34:22;;;;;;;26.23;13.73;;;4.90;99.80;;;;;;5071713;28;20087;-70
2022/01/08 02:36:48;;;;;;;29.52;13.13;;;4.90;99.90;;;;;;5055170;28;20097;-70
2022/01/08 02:39:13;;;;;;;32.38;14.57;;;5.00;99.90;;;;;;5052626;28;20038;-71
2022/01/08 02:41:40;;;;;;;30.38;12.73;;;5.10;99.80;;;;;;5051273;28;20029;-71
2022/01/08 02:44:10;;;;;;;31.35;14.45;;;5.00;99.70;;;;;;5054933;28;20107;-70
2022/01/08 02:46:39;;;;;;;26.50;13.95;;;5.10;99.80;;;;;;5072310;28;20036;-71
2022/01/08 02:49:05;;;;;;;27.85;15.05;;;5.10;99.70;;;;;;5072106;28;20452;-70
2022/01/08 02:51:33;;;;;;;23.50;13.45;;;5.10;99.60;;;;;;5070909;28;20021;-70
2022/01/08 02:53:59;;;;;;;29.50;14.40;;;5.20;99.80;;;;;;5070861;28;20032;-70
2022/01/08 02:56:25;;;;;;;23.95;12.88;;;5.20;99.70;;;;;;5071918;28;20039;-71
2022/01/08 02:58:51;;;;;;;31.65;14.30;;;5.20;99.40;;;;;;5071905;28;20111;-70
2022/01/08 03:01:16;;;;;;;24.88;13.20;;;5.20;99.40;;;;;;5071567;28;20041;-70
2022/01/08 03:03:42;;;;;;;22.23;12.90;;;5.20;99.50;;;;;;5071563;28;20048;-70
2022/01/08 03:06:07;;;;;;;23.27;12.75;;;5.10;99.30;;;;;;5071538;28;20090;-69
2022/01/08 03:08:33;;;;;;;26.13;12.60;;;5.10;99.30;;;;;;5071681;28;20035;-70
2022/01/08 03:10:58;;;;;;;24.02;11.88;;;5.10;99.30;;;;;;5071275;28;20052;-70
2022/01/08 03:13:24;;;;;;;28.60;13.60;;;5.00;99.30;;;;;;5070677;28;20060;-69
2022/01/08 03:15:50;;;;;;;27.05;14.10;;;5.10;99.50;;;;;;5070455;28;20115;-70
2022/01/08 03:18:16;;;;;;;30.92;13.82;;;5.20;99.50;;;;;;5071563;28;20072;-71
2022/01/08 03:20:59;;;;;;;24.15;12.57;;;5.30;99.50;;;;;;5071555;28;20418;-70
2022/01/08 03:23:25;;;;;;;21.95;11.98;;;5.20;99.40;;;;;;5070398;28;20055;-71
2022/01/08 03:25:50;;;;;;;24.75;12.63;;;5.20;99.60;;;;;;5071319;28;20599;-70
2022/01/08 03:28:16;;;;;;;27.00;13.38;;;5.20;99.40;;;;;;5070886;28;20043;-70
2022/01/08 03:30:41;;;;;;;23.95;12.68;;;5.30;99.40;;;;;;5083138;28;20116;-69
2022/01/08 03:33:07;;;;;;;27.30;14.50;;;5.30;99.30;;;;;;5051648;28;20025;-69
2022/01/08 03:35:33;;;;;;;27.70;13.45;;;5.40;99.30;;;;;;5051255;28;20104;-70
2022/01/08 03:37:59;;;;;;;24.88;13.35;;;5.40;99.20;;;;;;5051156;28;20021;-70
2022/01/08 03:40:25;;;;;;;32.42;14.48;;;5.40;99.40;;;;;;5067305;28;20470;-69
2022/01/08 03:42:50;;;;;;;26.48;13.77;;;5.40;99.30;;;;;;5071181;28;20029;-70
2022/01/08 03:45:16;;;;;;;29.42;13.68;;;5.50;99.10;;;;;;5071398;28;20029;-70
2022/01/08 03:50:13;;;;;;;22.45;12.60;;;5.10;99.10;;;;;;5070440;28;20037;-70
2022/01/08 03:52:39;;;;;;;21.67;11.93;;;5.00;99.20;;;;;;5070709;28;20624;-70
2022/01/08 03:55:05;;;;;;;20.50;11.82;;;5.10;99.00;;;;;;5070737;28;20101;-71
2022/01/08 03:57:30;;;;;;;22.17;11.85;;;5.10;98.90;;;;;;5069676;28;20021;-71
2022/01/08 03:59:56;;;;;;;22.55;10.73;;;5.10;99.10;;;;;;5071571;28;20025;-71
2022/01/08 04:02:21;;;;;;;23.35;11.40;;;5.00;99.00;;;;;;5069991;28;20051;-70
2022/01/08 04:04:48;;;;;;;20.48;10.77;;;5.10;98.90;;;;;;5070055;28;20394;-70
2022/01/08 04:07:14;;;;;;;24.90;11.55;;;5.10;98.80;;;;;;5069771;28;20032;-71
2022/01/08 04:09:39;;;;;;;25.73;12.07;;;5.10;98.90;;;;;;5070096;28;20186;-70
2022/01/08 04:12:07;;;;;;;23.63;11.10;;;5.10;98.80;;;;;;5071719;28;20494;-70
2022/01/08 04:14:47;;;;;;;21.63;11.27;;;4.90;98.80;;;;;;5070184;28;20047;-71
2022/01/08 04:17:14;;;;;;;24.42;12.18;;;5.10;99.00;;;;;;5070668;28;20028;-71
2022/01/08 04:19:40;;;;;;;23.87;11.33;;;5.20;98.80;;;;;;5070641;28;20041;-71
2022/01/08 04:22:13;;;;;;;21.98;10.20;;;5.20;98.90;;;;;;5068510;28;20265;-71
2022/01/08 04:24:40;;;;;;;19.50;10.05;;;5.10;98.70;;;;;;5068053;28;20020;-70
2022/01/08 04:27:06;;;;;;;23.10;11.10;;;5.20;98.90;;;;;;5070547;28;20027;-70
2022/01/08 04:29:32;;;;;;;23.40;11.32;;;5.20;98.80;;;;;;5070449;28;20112;-70
2022/01/08 04:31:58;;;;;;;22.48;11.38;;;5.10;98.90;;;;;;5070366;28;20025;-71
2022/01/08 04:34:23;;;;;;;24.98;12.00;;;5.10;98.80;;;;;;5069819;28;20391;-70
2022/01/08 04:36:49;;;;;;;21.75;10.65;;;5.10;98.90;;;;;;5070030;28;20028;-70
2022/01/08 04:39:14;;;;;;;22.63;10.75;;;5.20;98.80;;;;;;5070731;28;20032;-71
2022/01/08 04:41:41;;;;;;;21.40;11.10;;;5.20;98.60;;;;;;5070862;28;20068;-69
2022/01/08 04:44:08;;;;;;;24.25;11.57;;;5.20;98.70;;;;;;5069659;28;20029;-69
2022/01/08 04:46:33;;;;;;;15.98;9.82;;;5.20;98.60;;;;;;5070216;28;20039;-69
2022/01/08 04:48:59;;;;;;;20.70;11.25;;;5.10;98.40;;;;;;5070230;28;20033;-70
2022/01/08 04:51:26;;;;;;;23.17;11.55;;;5.20;98.30;;;;;;5070192;28;20029;-69
2022/01/08 04:53:51;;;;;;;23.00;11.93;;;5.10;98.40;;;;;;5070951;28;20025;-70
2022/01/08 04:56:17;;;;;;;22.25;10.10;;;5.10;98.40;;;;;;5069909;28;20033;-70
2022/01/08 04:58:43;;;;;;;22.90;11.00;;;5.10;98.50;;;;;;5070181;28;20040;-70
2022/01/08 05:01:13;;;;;;;20.63;11.27;;;5.10;98.40;;;;;;5070257;28;20166;-70
2022/01/08 05:03:38;;;;;;;23.40;12.43;;;4.80;98.50;;;;;;5068956;28;20045;-71
2022/01/08 05:06:04;;;;;;;25.50;11.90;;;4.70;98.60;;;;;;5070562;28;20028;-70
2022/01/08 05:08:30;;;;;;;27.15;11.80;;;5.00;98.90;;;;;;5068599;28;20040;-70
2022/01/08 05:10:55;;;;;;;26.95;11.45;;;4.90;98.90;;;;;;5069087;28;20029;-70
2022/01/08 05:13:21;;;;;;;29.58;11.65;;;5.00;98.80;;;;;;5070242;28;20085;-70
2022/01/08 05:15:47;;;;;;;19.00;11.27;;;5.00;98.80;;;;;;5070213;28;20040;-69
2022/01/08 05:18:12;;;;;;;27.80;12.18;;;4.90;98.50;;;;;;5069696;28;20028;-70
2022/01/08 05:20:41;;;;;;;27.48;12.20;;;5.00;98.70;;;;;;5069905;28;20048;-70
2022/01/08 05:23:07;;;;;;;23.23;11.63;;;5.00;98.70;;;;;;5069791;28;20032;-70
2022/01/08 05:25:33;;;;;;;22.35;12.27;;;5.10;98.70;;;;;;5069892;28;20115;-71
2022/01/08 05:27:59;;;;;;;25.88;12.93;;;5.00;98.50;;;;;;5069385;28;20033;-71
2022/01/08 05:30:26;;;;;;;24.05;11.43;;;5.00;98.50;;;;;;5069824;28;20119;-70
2022/01/08 05:32:52;;;;;;;28.23;12.18;;;5.00;98.50;;;;;;5070103;28;20025;-70
2022/01/08 05:35:18;;;;;;;22.08;12.45;;;4.90;98.40;;;;;;5068731;28;20033;-71
2022/01/08 05:37:43;;;;;;;24.65;12.20;;;4.90;98.50;;;;;;5069317;28;20589;-71
2022/01/08 05:40:10;;;;;;;28.55;13.68;;;5.00;98.60;;;;;;5070449;28;20106;-70
2022/01/08 05:42:35;;;;;;;21.58;11.70;;;5.00;98.50;;;;;;5072268;28;20036;-70
2022/01/08 05:45:01;;;;;;;25.55;11.68;;;4.90;98.50;;;;;;5071891;28;20028;-70
2022/01/08 05:47:30;;;;;;;26.35;12.48;;;4.90;98.50;;;;;;5071575;28;20086;-71
2022/01/08 05:49:56;;;;;;;22.65;11.70;;;4.80;98.40;;;;;;5073094;28;20028;-71
2022/01/08 05:52:21;;;;;;;25.60;11.50;;;4.80;98.60;;;;;;5071437;28;20037;-69
2022/01/08 05:54:47;;;;;;;27.60;13.57;;;4.80;98.70;;;;;;5071812;28;20459;-69
2022/01/08 05:57:13;;;;;;;27.45;13.35;;;4.80;98.80;;;;;;5072465;28;20036;-70
2022/01/08 05:59:38;;;;;;;30.23;13.85;;;4.70;98.80;;;;;;5073092;28;20033;-70
2022/01/08 06:02:05;;;;;;;26.33;12.95;;;4.70;98.80;;;;;;5071649;28;20355;-70
2022/01/08 06:04:31;;;;;;;24.15;13.23;;;4.70;98.80;;;;;;5072044;28;20123;-71
2022/01/08 06:06:56;;;;;;;24.83;13.50;;;4.70;98.80;;;;;;5072847;28;20128;-71
2022/01/08 06:09:22;;;;;;;26.50;12.93;;;4.70;98.90;;;;;;5072322;28;20347;-71
2022/01/08 06:11:48;;;;;;;24.38;12.80;;;4.70;98.90;;;;;;5072312;28;20047;-70
2022/01/08 06:14:13;;;;;;;27.65;11.68;;;4.70;98.90;;;;;;5072722;28;20040;-70
2022/01/08 06:16:39;;;;;;;26.95;12.95;;;4.70;98.80;;;;;;5072731;28;20033;-70
2022/01/08 06:19:08;;;;;;;29.00;13.38;;;4.60;98.90;;;;;;5071821;28;20032;-71
2022/01/08 06:21:33;;;;;;;25.58;11.55;;;4.70;98.90;;;;;;5072476;28;20034;-70
2022/01/08 06:23:59;;;;;;;28.83;13.32;;;4.60;98.80;;;;;;5073010;28;20025;-70
2022/01/08 06:26:25;;;;;;;25.75;12.40;;;4.60;99.00;;;;;;5071669;28;20115;-70
2022/01/08 06:28:51;;;;;;;26.98;12.90;;;4.60;99.00;;;;;;5072479;28;20496;-71
2022/01/08 06:31:21;;;;;;;24.92;12.77;;;4.60;98.90;;;;;;5072476;28;20343;-70
2022/01/08 06:33:47;;;;;;;29.23;12.68;;;4.60;99.00;;;;;;5071431;28;20032;-70
2022/01/08 06:36:14;;;;;;;29.67;12.02;;;4.60;98.90;;;;;;5072213;28;20029;-70
2022/01/08 06:38:40;;;;;;;34.17;12.50;;;4.60;98.90;;;;;;5071237;28;20090;-71
2022/01/08 06:41:06;;;;;;;22.33;12.00;;;4.60;98.80;;;;;;5071687;28;20024;-71
2022/01/08 06:43:32;;;;;;;26.50;12.73;;;4.60;98.80;;;;;;5071493;28;20043;-71
2022/01/08 06:45:57;;;;;;;25.45;12.30;;;4.60;98.70;;;;;;5072042;28;20119;-71
2022/01/08 06:48:23;;;;;;;25.63;12.60;;;4.60;98.80;;;;;;5072365;28;20035;-71
2022/01/08 06:50:48;;;;;;;28.52;11.90;;;4.70;98.80;;;;;;5070076;28;20082;-70
2022/01/08 06:53:14;;;;;;;23.23;11.75;;;4.70;98.70;;;;;;5071812;28;20124;-70
2022/01/08 06:55:40;;;;;;;30.85;12.00;;;4.70;98.60;;;;;;5072162;28;20040;-70
2022/01/08 06:58:05;;;;;;;23.92;11.60;;;4.70;98.60;;;;;;5072063;28;20469;-71
2022/01/08 07:00:31;;;;;;;24.55;11.93;;;4.90;98.90;;;;;;5070765;28;20040;-70
2022/01/08 07:02:56;;;;;;;26.58;11.88;;;4.70;98.70;;;;;;5070712;28;20048;-69
2022/01/08 07:05:22;;;;;;;23.42;12.10;;;4.80;98.60;;;;;;5070298;28;20554;-69
2022/01/08 07:07:48;;;;;;;25.50;11.73;;;4.80;98.50;;;;;;5071791;28;20028;-70
2022/01/08 07:10:13;;;;;;;32.22;12.73;;;4.70;98.50;;;;;;5071746;28;20025;-69
2022/01/08 07:12:39;;;;;;;24.85;11.40;;;4.70;98.50;;;;;;5071541;28;20099;-70
2022/01/08 07:15:05;;;;;;;23.80;10.65;;;4.70;98.50;;;;;;5071446;28;20606;-70
2022/01/08 07:17:31;;;;;;;23.73;10.73;;;4.70;98.60;;;;;;5071148;28;20033;-71
2022/01/08 07:19:56;;;;;;;24.60;11.73;;;4.60;98.60;;;;;;5071342;28;20032;-71
2022/01/08 07:22:22;;;;;;;21.90;11.65;;;4.60;98.80;;;;;;5071414;28;20036;-71
2022/01/08 07:24:48;;;;;;;27.75;12.35;;;4.60;98.80;;;;;;5071380;28;20029;-71
2022/01/08 07:27:13;;;;;;;27.75;11.35;;;4.60;98.70;;;;;;5070667;28;20032;-70
2022/01/08 07:29:39;;;;;;;24.77;11.02;;;4.50;98.70;;;;;;5071608;28;20366;-71
2022/01/08 07:32:05;;;;;;;22.70;11.75;;;4.60;98.80;;;;;;5070141;28;20036;-71
2022/01/08 07:34:30;;;;;;;25.73;11.38;;;4.60;98.80;;;;;;5069088;28;20028;-72
2022/01/08 07:36:56;;;;;;;27.10;10.93;;;4.60;98.80;;;;;;5070942;28;20024;-69
2022/01/08 07:39:22;;;;;;;34.80;12.35;;;4.60;98.80;;;;;;5070999;28;20029;-71
2022/01/08 07:41:47;;;;;;;31.85;12.60;;;4.50;98.80;;;;;;5070940;28;20050;-70
2022/01/08 07:44:13;;;;;;;28.15;10.73;;;4.50;98.90;;;;;;5071040;28;20122;-71
2022/01/08 07:46:39;;;;;;;27.23;10.98;;;4.50;99.00;;;;;;5069692;28;20033;-71
2022/01/08 07:49:04;;;;;;;25.42;10.50;;;4.70;99.00;;;;;;5069664;28;20445;-69
2022/01/08 07:51:30;;;;;;;28.98;11.50;;;4.60;98.80;;;;;;5068552;28;20377;-70
2022/01/08 07:53:55;;;;;;;26.20;10.98;;;4.70;98.80;;;;;;5068852;28;20021;-69
2022/01/08 07:56:21;;;;;;;25.90;12.77;;;4.50;98.70;;;;;;5069264;28;20331;-69
2022/01/08 07:58:46;;;;;;;25.40;11.48;;;4.60;98.90;;;;;;5070918;28;20035;-70
2022/01/08 08:01:12;;;;;;;24.02;11.68;;;4.50;98.80;;;;;;5070891;28;20032;-70
2022/01/08 08:03:37;;;;;;;30.33;11.75;;;4.50;98.80;;;;;;5068949;28;20044;-70
2022/01/08 08:06:03;;;;;;;24.08;11.85;;;4.50;98.90;;;;;;5069646;28;20094;-70
2022/01/08 08:08:28;;;;;;;26.83;11.75;;;4.50;98.90;;;;;;5070280;28;20471;-70
2022/01/08 08:10:54;;;;;;;25.38;12.13;;;4.40;98.90;;;;;;5070457;28;20506;-69
2022/01/08 08:13:21;;;;;;;27.98;11.90;;;4.40;98.90;;;;;;5069703;28;20048;-69
2022/01/08 08:15:47;;;;;;;24.77;12.10;;;4.40;99.00;;;;;;5069337;28;20089;-70
2022/01/08 08:18:13;;;;;;;30.83;11.98;;;4.50;99.10;;;;;;5070366;28;20028;-70
2022/01/08 08:20:40;;;;;;;26.27;12.23;;;4.40;98.90;;;;;;5070662;28;20021;-71
2022/01/08 08:23:05;;;;;;;27.20;11.90;;;4.40;99.00;;;;;;5070381;28;20032;-69
2022/01/08 08:25:31;;;;;;;29.85;12.23;;;4.40;99.00;;;;;;5069109;28;20457;-70
2022/01/08 08:27:56;;;;;;;26.08;12.05;;;4.50;99.10;;;;;;5069881;28;20051;-73
2022/01/08 08:30:23;;;;;;;25.17;12.13;;;4.50;99.00;;;;;;5070847;28;20188;-73
2022/01/08 08:32:49;;;;;;;24.77;11.77;;;4.50;99.00;;;;;;5070753;28;20036;-72
2022/01/08 08:35:15;;;;;;;27.00;12.70;;;4.50;99.10;;;;;;5067889;28;20044;-70
2022/01/08 08:37:41;;;;;;;26.50;11.63;;;4.60;99.20;;;;;;5066380;28;20181;-69
2022/01/08 08:40:11;;;;;;;24.90;11.32;;;4.60;99.00;;;;;;5052036;28;20416;-70
2022/01/08 08:42:37;;;;;;;20.38;10.75;;;4.70;99.10;;;;;;5050591;28;20044;-70
2022/01/08 08:45:04;;;;;;;25.33;11.65;;;4.70;98.80;;;;;;5049763;28;20426;-71
2022/01/08 08:47:31;;;;;;;26.63;11.35;;;4.70;98.80;;;;;;5050497;28;20039;-69
2022/01/08 08:49:58;;;;;;;23.13;11.63;;;4.70;98.80;;;;;;5068212;28;20045;-70
2022/01/08 08:52:23;;;;;;;25.20;11.65;;;4.80;99.10;;;;;;5069733;28;20262;-70
2022/01/08 08:54:49;;;;;;;22.20;11.05;;;4.70;98.90;;;;;;5069158;28;20102;-70
2022/01/08 08:57:15;;;;;;;26.27;10.82;;;4.90;99.00;;;;;;5070971;28;20027;-70
2022/01/08 08:59:41;;;;;;;26.65;11.95;;;5.00;98.50;;;;;;5070417;28;20111;-71
2022/01/08 09:02:06;;;;;;;24.88;11.07;;;5.00;98.60;;;;;;5070215;28;20064;-70
2022/01/08 09:04:36;;;;;;;39.08;12.30;;;5.10;98.60;;;;;;5069024;28;20055;-71
2022/01/08 09:07:03;;;;;;;27.60;11.32;;;5.10;98.50;;;;;;5070263;28;20021;-70
2022/01/08 09:09:28;;;;;;;24.45;11.20;;;5.10;98.50;;;;;;5069859;28;20431;-71
2022/01/08 09:11:54;;;;;;;24.83;10.35;;;5.30;98.60;;;;;;5070838;28;20088;-71
2022/01/08 09:14:20;;;;;;;25.60;10.55;;;5.40;98.40;;;;;;5072533;28;20698;-72
2022/01/08 09:16:48;;;;;;;21.25;10.05;;;5.40;98.20;;;;;;5071674;28;20043;-70
2022/01/08 09:19:15;;;;;;;24.52;11.38;;;5.20;98.20;;;;;;5073017;28;20043;-70
2022/01/08 09:21:42;;;;;;;23.60;11.40;;;5.20;98.30;;;;;;5071528;28;20360;-70
2022/01/08 09:24:08;;;;;;;24.92;11.43;;;5.20;98.30;;;;;;5073844;28;20543;-71
2022/01/08 09:26:34;;;;;;;24.85;10.68;;;5.30;98.30;;;;;;5073951;28;20027;-75
2022/01/08 09:28:59;;;;;;;27.73;11.40;;;5.40;98.30;;;;;;5073349;28;20029;-73
2022/01/08 09:31:25;;;;;;;23.50;10.98;;;5.40;98.10;;;;;;5073777;28;20032;-72
2022/01/08 09:33:50;;;;;;;25.85;12.18;;;5.50;98.00;;;;;;5073304;28;20040;-73
2022/01/08 09:36:16;;;;;;;24.30;11.15;;;5.50;98.10;;;;;;5074189;28;20020;-74
2022/01/08 09:38:42;;;;;;;26.70;11.20;;;5.50;97.90;;;;;;5072915;28;20435;-74
2022/01/08 09:41:08;;;;;;;25.80;11.95;;;5.40;98.00;;;;;;5073550;28;20047;-74
2022/01/08 09:43:35;;;;;;;24.70;10.88;;;5.50;98.00;;;;;;5072756;28;20033;-72
2022/01/08 09:46:01;;;;;;;19.73;9.57;;;5.60;98.10;;;;;;5073774;28;20039;-70
2022/01/08 09:48:26;;;;;;;29.48;10.52;;;5.60;97.90;;;;;;5073465;28;20103;-71
2022/01/08 09:50:52;;;;;;;24.30;10.27;;;5.70;98.00;;;;;;5073801;28;20056;-70
2022/01/08 09:53:19;;;;;;;29.42;10.93;;;5.60;97.80;;;;;;5072130;28;20067;-71
2022/01/08 09:55:44;;;;;;;21.45;9.65;;;5.70;98.00;;;;;;5073451;28;20032;-71
2022/01/08 09:58:11;;;;;;;23.15;9.38;;;5.70;97.90;;;;;;5071512;28;20049;-70
2022/01/08 10:00:37;;;;;;;28.85;10.63;;;5.80;97.80;;;;;;5071699;28;20071;-72
2022/01/08 10:03:20;;;;;;;20.65;9.15;;;5.70;97.70;;;;;;5071679;28;21483;-70
2022/01/08 10:05:51;;;;;;;29.90;10.68;;;5.90;98.00;;;;;;5060152;28;20040;-71
2022/01/08 10:08:24;;;;;;;22.60;10.23;;;5.80;97.70;;;;;;5054407;28;20029;-70
2022/01/08 10:11:04;;;;;;;24.08;9.93;;;5.90;97.70;;;;;;5056176;28;20468;-70
2022/01/08 10:13:38;;;;;;;23.45;10.07;;;5.80;97.70;;;;;;5072814;28;20454;-75
2022/01/08 10:18:53;;;;;;;24.38;10.00;;;5.80;97.50;;;;;;5072725;28;20150;-76
2022/01/08 10:21:22;;;;;;;23.65;10.00;;;5.80;97.60;;;;;;5072730;28;20024;-75
2022/01/08 10:23:53;;;;;;;23.73;9.85;;;5.80;97.60;;;;;;5072174;28;20131;-75
2022/01/08 10:26:21;;;;;;;28.00;10.52;;;5.90;97.70;;;;;;5070877;28;20039;-71
2022/01/08 10:28:53;;;;;;;24.95;10.32;;;5.90;97.50;;;;;;5072929;28;20028;-71
2022/01/08 10:31:23;;;;;;;22.50;9.88;;;5.90;97.50;;;;;;5072659;28;20033;-69
2022/01/08 10:34:04;;;;;;;22.27;9.55;;;6.00;97.40;;;;;;5071450;28;20032;-72
2022/01/08 10:36:32;;;;;;;22.20;9.18;;;6.00;97.50;;;;;;5063042;28;20625;-71
2022/01/08 10:39:00;;;;;;;27.98;9.90;;;6.10;97.30;;;;;;5072448;28;20025;-71
2022/01/08 10:41:26;;;;;;;;;;;6.00;97.30;;;;;;5072971;28;20025;-71
2022/01/08 10:44:07;;;;;;;24.15;9.88;;;6.10;97.30;;;;;;5071030;28;20411;-71
2022/01/08 10:46:34;;;;;;;27.98;12.55;;;6.00;97.20;;;;;;5072124;28;20482;-69
2022/01/08 10:49:00;;;;;;;25.33;10.20;;;6.00;97.30;;;;;;5072496;28;20490;-70
2022/01/08 10:51:26;;;;;;;24.77;9.30;;;6.10;97.30;;;;;;5071428;28;20104;-70
2022/01/08 10:53:53;;;;;;;22.10;9.07;;;6.20;97.10;;;;;;5071576;28;20032;-70
2022/01/08 10:56:28;;;;;;;23.67;9.55;;;6.00;97.00;;;;;;5072294;28;20032;-71
2022/01/08 10:59:17;;;;;;;22.20;9.20;;;6.10;97.10;;;;;;5070804;28;20033;-71
2022/01/08 11:02:03;;;;;;;31.00;10.27;;;6.20;96.90;;;;;;5071350;28;20033;-69
2022/01/08 11:04:48;;;;;;;19.48;9.10;;;6.30;96.80;;;;;;5070290;28;20037;-69
2022/01/08 11:07:16;;;;;;;24.67;9.23;;;6.40;96.80;;;;;;5071694;28;20021;-70
2022/01/08 11:09:45;;;;;;;22.23;9.77;;;6.40;96.70;;;;;;5070885;28;20472;-69
2022/01/08 11:12:16;;;;;;;27.40;9.15;;;6.50;96.70;;;;;;5071576;28;20104;-69
2022/01/08 11:14:59;;;;;;;22.15;9.05;;;6.70;96.60;;;;;;5070021;28;20528;-69
2022/01/08 11:17:45;;;;;;;21.45;9.77;;;6.70;96.30;;;;;;5071704;28;20252;-70
2022/01/08 11:20:14;;;;;;;27.02;10.13;;;6.70;96.20;;;;;;5071658;28;20054;-70
2022/01/08 11:22:43;;;;;;;20.65;9.13;;;6.70;96.30;;;;;;5069738;28;20123;-71
2022/01/08 11:25:17;;;;;;;25.50;10.35;;;6.60;96.20;;;;;;5070422;28;20032;-72
2022/01/08 11:28:09;;;;;;;21.75;10.05;;;6.80;96.40;;;;;;5070187;28;20066;-73
2022/01/08 11:30:39;;;;;;;23.55;9.93;;;6.70;96.10;;;;;;5071509;28;20058;-72
2022/01/08 11:33:13;;;;;;;28.02;10.52;;;6.80;96.00;;;;;;5071278;28;20055;-72
2022/01/08 11:35:40;;;;;;;28.60;10.52;;;6.80;95.90;;;;;;5070994;28;20025;-70
2022/01/08 11:38:08;;;;;;;28.13;10.88;;;7.10;95.90;;;;;;5071437;28;20029;-71
2022/01/08 11:40:36;;;;;;;;;;;7.40;95.60;;;;;;5071919;28;20056;-68
2022/01/08 11:43:03;;;;;;;24.63;10.23;;;7.50;95.10;;;;;;5070631;28;19943;-70
2022/01/08 11:45:33;;;;;;;26.73;9.68;;;7.60;95.00;;;;;;5071055;28;20102;-70
2022/01/08 11:48:03;;;;;;;25.33;10.50;;;7.20;95.00;;;;;;5070590;28;20077;-71
2022/01/08 11:50:31;;;;;;;24.67;10.98;;;7.20;94.90;;;;;;5069621;28;20035;-70
2022/01/08 11:53:15;;;;;;;;;;;7.40;95.10;;;;;;5070825;28;20248;-69
2022/01/08 11:55:43;;;;;;;27.15;10.93;;;7.30;94.90;;;;;;5064336;28;19916;-71
2022/01/08 11:58:23;;;;;;;24.00;10.15;;;7.20;94.80;;;;;;5067653;28;20443;-70
2022/01/08 12:00:50;;;;;;;26.85;12.02;;;7.10;94.90;;;;;;5054278;28;20041;-70
2022/01/08 12:03:21;;;;;;;25.30;11.48;;;7.00;95.30;;;;;;5071112;28;20036;-71
2022/01/08 12:05:48;;;;;;;28.35;13.02;;;6.90;95.30;;;;;;5068640;28;20043;-72
2022/01/08 12:08:16;;;;;;;31.63;12.50;;;7.10;95.50;;;;;;5068985;28;20119;-71
2022/01/08 12:10:58;;;;;;;;;;;7.20;95.40;;;;;;5069483;28;20036;-71
2022/01/08 12:13:43;;;;;;;33.40;12.68;;;7.30;95.40;;;;;;5069416;28;20005;-71
2022/01/08 12:16:36;;;;;;;30.67;12.85;;;7.20;95.10;;;;;;5066515;28;20259;-71
2022/01/08 12:19:04;;;;;;;33.10;12.63;;;7.20;95.10;;;;;;5067586;28;20358;-72
2022/01/08 12:21:40;;;;;;;30.42;12.60;;;7.40;95.60;;;;;;5069121;28;20039;-72
2022/01/08 12:24:26;;;;;;;28.65;12.15;;;7.50;95.10;;;;;;5070827;28;20020;-72
2022/01/08 12:26:58;;;;;;;31.45;13.63;;;7.60;95.20;;;;;;5062262;28;20324;-73
2022/01/08 12:29:41;;;;;;;32.10;13.07;;;7.80;94.90;;;;;;5068519;28;20111;-72
2022/01/08 12:32:22;;;;;;;32.00;13.55;;;7.70;94.70;;;;;;5069114;28;20021;-72
2022/01/08 12:34:49;;;;;;;30.80;14.55;;;7.70;94.60;;;;;;5054377;28;20037;-72
2022/01/08 12:37:17;;;;;;;35.75;15.23;;;7.60;94.70;;;;;;5050340;28;20029;-71
2022/01/08 12:39:48;;;;;;;31.47;13.97;;;7.70;94.50;;;;;;5051946;28;20116;-72
2022/01/08 12:42:20;;;;;;;31.77;15.70;;;7.60;94.50;;;;;;5071127;28;20025;-70
2022/01/08 12:44:59;;;;;;;32.60;14.93;;;7.70;94.50;;;;;;5067068;28;20072;-71
2022/01/08 12:47:56;;;;;;;34.47;14.75;;;7.50;94.00;;;;;;5070135;28;20407;-72
2022/01/08 12:50:37;;;;;;;32.33;14.88;;;7.40;94.10;;;;;;5074325;28;20042;-71
2022/01/08 12:53:05;;;;;;;34.33;14.60;;;7.20;94.10;;;;;;5074233;28;20021;-70
2022/01/08 12:55:40;;;;;;;36.28;15.07;;;7.10;94.10;;;;;;5072414;28;20474;-71
2022/01/08 12:58:15;;;;;;;35.60;14.95;;;7.00;94.30;;;;;;5070904;28;20025;-71
2022/01/08 13:01:03;;;;;;;37.33;14.27;;;6.80;94.50;;;;;;5072750;28;20477;-71
2022/01/08 13:03:31;;;;;;;39.25;14.68;;;6.80;94.60;;;;;;5072150;28;20045;-71
2022/01/08 13:06:18;;;;;;;33.45;12.68;;;6.70;94.60;;;;;;5072542;28;20417;-70
2022/01/08 13:08:46;;;;;;;31.80;14.85;;;6.70;94.70;;;;;;5072032;28;20052;-70